createdAt,value
2019-03-08T10:19:56.131Z,5072.00
2019-03-08T10:21:14.342Z,5444.00
2019-03-08T10:22:14.342Z,5972.00
2019-03-08T10:23:19.855Z,6520.00
2019-03-08T10:24:16.394Z,6484.00
2019-03-08T10:25:15.397Z,6480.00
2019-03-08T10:26:15.386Z,6528.00
2019-03-08T10:27:15.392Z,6488.00
2019-03-08T10:28:47.341Z,6548.00
2019-03-08T10:29:15.361Z,6968.00
2019-03-08T10:30:15.353Z,7264.00
2019-03-08T10:31:15.359Z,7476.00
2019-03-08T10:32:15.355Z,7660.00
2019-03-08T10:33:15.343Z,7840.00
2019-03-08T10:34:15.335Z,7604.00
2019-03-08T10:35:23.555Z,7468.00
2019-03-08T10:36:17.317Z,7560.00
2019-03-08T10:37:15.313Z,7452.00
2019-03-08T10:38:22.306Z,7656.00
2019-03-08T10:39:17.287Z,7636.00
2019-03-08T10:40:15.289Z,7816.00
2019-03-08T10:41:15.279Z,8004.00
2019-03-08T10:42:15.275Z,8040.00
2019-03-08T10:43:15.262Z,8292.00
2019-03-08T10:44:15.595Z,8428.00
2019-03-08T10:45:16.251Z,8184.00
2019-03-08T10:46:15.936Z,7948.00
2019-03-08T10:47:16.241Z,7868.00
2019-03-08T10:48:15.237Z,7624.00
2019-03-08T10:49:15.254Z,7460.00
2019-03-08T10:50:15.232Z,8160.00
2019-03-08T10:51:15.223Z,8380.00
2019-03-08T10:52:18.005Z,8740.00
2019-03-08T10:53:16.211Z,8840.00
2019-03-08T10:54:15.220Z,9216.00
2019-03-08T10:55:15.207Z,9432.00
2019-03-08T10:56:15.210Z,9660.00
2019-03-08T10:57:15.209Z,9868.00
2019-03-08T10:58:15.190Z,9748.00
2019-03-08T10:59:15.208Z,9428.00
2019-03-08T11:00:15.202Z,9416.00
2019-03-08T11:01:15.160Z,9352.00
2019-03-08T11:02:15.168Z,10428.00
2019-03-08T11:03:15.153Z,9636.00
2019-03-08T11:04:15.139Z,9456.00
2019-03-08T11:05:15.129Z,9332.00
2019-03-08T11:06:15.124Z,8696.00
2019-03-08T11:07:15.122Z,8488.00
2019-03-08T11:08:15.108Z,8820.00
2019-03-08T11:09:15.097Z,9240.00
2019-03-08T11:10:15.093Z,9604.00
2019-03-08T11:11:15.082Z,9412.00
2019-03-08T11:12:15.089Z,9868.00
2019-03-08T11:13:15.073Z,11004.00
2019-03-08T11:14:15.062Z,9152.00
2019-03-08T11:15:23.926Z,9232.00
2019-03-08T11:16:16.058Z,12052.00
2019-03-08T11:17:15.069Z,10504.00
2019-03-08T11:18:15.042Z,10464.00
2019-03-08T11:19:15.041Z,9544.00
2019-03-08T11:20:15.022Z,8852.00
2019-03-08T11:21:15.123Z,8212.00
2019-03-08T11:22:16.043Z,7528.00
2019-03-08T11:23:15.001Z,7604.00
2019-03-08T11:24:14.989Z,7320.00
2019-03-08T11:25:14.991Z,6448.00
2019-03-08T11:26:14.982Z,5480.00
2019-03-08T11:27:14.992Z,5144.00
2019-03-08T11:28:21.133Z,5912.00
2019-03-08T11:29:16.982Z,6004.00
2019-03-08T11:30:14.969Z,5440.00
2019-03-08T11:31:14.963Z,7376.00
2019-03-08T11:32:22.740Z,7440.00
2019-03-08T11:33:16.960Z,6988.00
2019-03-08T11:34:14.944Z,6396.00
2019-03-08T11:35:15.947Z,8348.00
2019-03-08T11:36:14.947Z,9516.00
2019-03-08T11:37:14.942Z,9316.00
2019-03-08T11:38:14.943Z,8572.00
2019-03-08T11:39:14.922Z,8280.00
2019-03-08T11:40:14.931Z,8148.00
2019-03-08T11:41:14.904Z,8068.00
2019-03-08T11:42:14.900Z,8596.00
2019-03-08T11:43:14.904Z,9656.00
2019-03-08T11:44:14.887Z,9432.00
2019-03-08T11:45:14.878Z,8916.00
2019-03-08T11:46:14.871Z,7488.00
2019-03-08T11:47:14.865Z,7684.00
2019-03-08T11:48:14.870Z,7788.00
2019-03-08T11:49:14.880Z,7244.00
2019-03-08T11:50:14.843Z,7664.00
2019-03-08T11:51:14.837Z,7588.00
2019-03-08T11:52:14.830Z,7304.00
2019-03-08T11:53:14.844Z,7176.00
2019-03-08T11:54:14.818Z,7240.00
2019-03-08T11:55:14.809Z,7240.00
2019-03-08T11:56:14.811Z,7132.00
2019-03-08T11:57:14.807Z,7260.00
2019-03-08T11:58:14.814Z,7328.00
2019-03-08T11:59:14.818Z,7608.00
2019-03-08T12:00:14.810Z,7568.00
2019-03-08T12:01:14.802Z,7864.00
2019-03-08T12:03:52.199Z,8032.00
2019-03-08T12:04:52.199Z,7944.00
2019-03-08T12:05:53.308Z,7764.00
2019-03-08T12:06:53.319Z,7592.00
2019-03-08T12:07:53.324Z,7296.00
2019-03-08T12:09:25.284Z,7056.00
2019-03-08T12:09:53.296Z,6620.00
2019-03-08T12:10:53.298Z,5808.00
2019-03-08T12:11:53.286Z,5804.00
2019-03-08T12:12:53.274Z,5908.00
2019-03-08T12:13:53.282Z,6148.00
2019-03-08T12:14:53.260Z,6700.00
2019-03-08T12:15:53.254Z,7488.00
2019-03-08T12:16:54.252Z,8296.00
2019-03-08T12:17:53.247Z,8836.00
2019-03-08T12:18:53.249Z,9528.00
2019-03-08T12:19:53.231Z,8820.00
2019-03-08T12:20:53.226Z,8340.00
2019-03-08T12:21:53.210Z,9196.00
2019-03-08T12:22:53.210Z,9796.00
2019-03-08T12:23:53.213Z,9336.00
2019-03-08T12:24:53.196Z,8892.00
2019-03-08T12:25:53.190Z,7892.00
2019-03-08T12:26:53.185Z,7612.00
2019-03-08T12:27:53.167Z,7268.00
2019-03-08T12:28:53.179Z,7216.00
2019-03-08T12:29:53.152Z,7856.00
2019-03-08T12:30:53.262Z,6244.00
2019-03-08T12:31:53.371Z,6760.00
2019-03-08T12:32:53.248Z,5556.00
2019-03-08T12:33:53.491Z,5336.00
2019-03-08T12:34:54.399Z,5124.00
2019-03-08T12:35:53.367Z,5044.00
2019-03-08T12:36:53.368Z,5308.00
2019-03-08T12:37:53.235Z,5344.00
2019-03-08T12:38:53.202Z,5196.00
2019-03-08T12:39:53.257Z,5456.00
2019-03-08T12:40:53.212Z,5624.00
2019-03-08T12:41:53.796Z,6104.00
2019-03-08T12:42:53.226Z,6144.00
2019-03-08T12:43:53.300Z,6260.00
2019-03-08T12:44:53.289Z,6944.00
2019-03-08T12:45:53.126Z,6920.00
2019-03-08T12:46:53.117Z,6408.00
2019-03-08T12:47:53.115Z,7080.00
2019-03-08T12:48:53.166Z,7180.00
2019-03-08T12:49:53.071Z,4856.00
2019-03-08T12:50:53.061Z,4860.00
2019-03-08T12:51:53.055Z,4708.00
2019-03-08T12:52:53.043Z,4376.00
2019-03-08T12:53:53.048Z,4276.00
2019-03-08T12:54:53.034Z,6096.00
2019-03-08T12:55:53.012Z,5324.00
2019-03-08T12:56:53.012Z,5044.00
2019-03-08T12:57:53.002Z,5276.00
2019-03-08T12:58:53.042Z,6364.00
2019-03-08T12:59:53.004Z,6580.00
2019-03-08T13:00:52.994Z,6536.00
2019-03-08T13:01:53.076Z,6944.00
2019-03-08T13:02:52.980Z,7224.00
2019-03-08T13:03:53.002Z,7124.00
2019-03-08T13:04:52.964Z,6872.00
2019-03-08T13:05:52.946Z,6772.00
2019-03-08T13:06:52.941Z,6404.00
2019-03-08T13:07:52.938Z,6220.00
2019-03-08T13:08:52.952Z,6372.00
2019-03-08T13:09:52.922Z,5976.00
2019-03-08T13:10:52.943Z,5584.00
2019-03-08T13:11:52.927Z,6304.00
2019-03-08T13:12:52.922Z,6348.00
2019-03-08T13:13:52.908Z,6700.00
2019-03-08T13:14:52.935Z,6444.00
2019-03-08T13:15:52.958Z,6248.00
2019-03-08T13:16:52.909Z,6344.00
2019-03-08T13:17:52.906Z,6564.00
2019-03-08T13:18:52.895Z,6632.00
2019-03-08T13:19:52.898Z,7100.00
2019-03-08T13:20:52.890Z,7672.00
2019-03-08T13:21:52.883Z,7236.00
2019-03-08T13:22:52.874Z,6408.00
2019-03-08T13:23:52.872Z,6540.00
2019-03-08T13:24:52.879Z,7532.00
2019-03-08T13:25:52.847Z,5528.00
2019-03-08T13:26:53.844Z,7068.00
2019-03-08T13:27:52.837Z,6240.00
2019-03-08T13:28:52.829Z,6048.00
2019-03-08T13:29:52.833Z,6352.00
2019-03-08T13:30:52.820Z,5416.00
2019-03-08T13:31:52.822Z,5136.00
2019-03-08T13:32:52.802Z,6284.00
2019-03-08T13:33:52.787Z,6212.00
2019-03-08T13:34:52.784Z,6028.00
2019-03-08T13:35:53.781Z,6040.00
2019-03-08T13:36:52.767Z,4544.00
2019-03-08T13:37:52.758Z,5936.00
2019-03-08T13:38:52.757Z,6316.00
2019-03-08T13:39:52.748Z,4948.00
2019-03-08T13:40:52.742Z,6376.00
2019-03-08T13:41:52.733Z,6336.00
2019-03-08T13:42:52.729Z,6140.00
2019-03-08T13:43:52.717Z,4844.00
2019-03-08T13:44:52.733Z,5672.00
2019-03-08T13:45:52.704Z,5552.00
2019-03-08T13:46:52.694Z,5516.00
2019-03-08T13:47:52.699Z,5540.00
2019-03-08T13:48:52.690Z,4912.00
2019-03-08T13:49:52.690Z,5336.00
2019-03-08T13:50:52.676Z,5232.00
2019-03-08T13:51:52.708Z,5140.00
2019-03-08T13:52:52.694Z,5128.00
2019-03-08T13:53:52.680Z,5064.00
2019-03-08T13:54:52.688Z,5056.00
2019-03-08T13:55:52.661Z,4348.00
2019-03-08T13:56:52.657Z,3340.00
2019-03-08T13:57:52.635Z,4596.00
2019-03-08T13:58:52.641Z,3416.00
2019-03-08T13:59:52.641Z,4796.00
2019-03-08T14:00:52.618Z,3340.00
2019-03-08T14:01:52.609Z,3808.00
2019-03-08T14:02:52.611Z,3260.00
2019-03-08T14:03:52.611Z,3496.00
2019-03-08T14:04:52.593Z,3696.00
2019-03-08T14:05:52.588Z,3752.00
2019-03-08T14:06:52.567Z,3856.00
2019-03-08T14:07:52.560Z,3924.00
2019-03-08T14:08:52.550Z,3676.00
2019-03-08T14:09:52.553Z,3480.00
2019-03-08T14:10:52.553Z,3596.00
2019-03-08T14:11:52.555Z,4020.00
2019-03-08T14:12:52.538Z,4848.00
2019-03-08T14:13:52.536Z,4708.00
2019-03-08T14:14:52.528Z,4028.00
2019-03-08T14:15:52.535Z,3984.00
2019-03-08T14:16:52.518Z,4372.00
2019-03-08T14:17:52.504Z,4788.00
2019-03-08T14:18:52.492Z,6400.00
2019-03-08T14:19:52.491Z,6692.00
2019-03-08T14:20:53.497Z,6756.00
2019-03-08T14:21:52.480Z,6504.00
2019-03-08T14:22:52.464Z,5760.00
2019-03-08T14:23:52.483Z,5376.00
2019-03-08T14:24:52.501Z,5088.00
2019-03-08T14:25:52.498Z,4856.00
2019-03-08T14:26:52.484Z,4672.00
2019-03-08T14:27:52.470Z,4568.00
2019-03-08T14:28:52.494Z,4484.00
2019-03-08T14:29:55.218Z,4452.00
2019-03-08T14:30:57.772Z,4412.00
2019-03-08T14:31:53.453Z,4384.00
2019-03-08T14:32:52.433Z,4368.00
2019-03-08T14:33:52.440Z,4344.00
2019-03-08T14:34:53.716Z,4332.00
2019-03-08T14:35:53.431Z,4324.00
2019-03-08T14:36:52.416Z,4292.00
2019-03-08T14:37:55.774Z,4272.00
2019-03-08T14:38:52.394Z,4280.00
2019-03-08T14:39:52.397Z,4260.00
2019-03-08T14:40:53.273Z,4236.00
2019-03-08T14:41:53.374Z,4224.00
2019-03-08T14:42:52.370Z,4216.00
2019-03-08T14:43:53.606Z,4196.00
2019-03-08T14:44:53.354Z,4180.00
2019-03-08T14:45:52.353Z,4168.00
2019-03-08T14:46:52.947Z,4132.00
2019-03-08T14:47:53.329Z,4124.00
2019-03-08T14:48:52.337Z,4088.00
2019-03-08T14:49:55.387Z,4108.00
2019-03-08T14:50:53.334Z,4100.00
2019-03-08T14:51:52.316Z,4076.00
2019-03-08T14:52:55.416Z,4060.00
2019-03-08T14:53:53.308Z,4080.00
2019-03-08T14:54:52.301Z,4072.00
2019-03-08T14:55:55.077Z,4088.00
2019-03-08T14:56:53.282Z,4076.00
2019-03-08T14:57:55.209Z,4112.00
2019-03-08T14:58:53.267Z,4092.00
2019-03-08T14:59:53.043Z,4044.00
2019-03-08T15:00:53.264Z,4048.00
2019-03-08T15:01:52.240Z,4016.00
2019-03-08T15:02:52.253Z,3984.00
2019-03-08T15:03:52.231Z,3712.00
2019-03-08T15:04:52.222Z,3868.00
2019-03-08T15:05:54.951Z,3936.00
2019-03-08T15:06:53.223Z,3192.00
2019-03-08T15:07:52.242Z,3180.00
2019-03-08T15:08:54.992Z,3096.00
2019-03-08T15:09:53.186Z,4064.00
2019-03-08T15:10:52.180Z,4040.00
2019-03-08T15:11:52.182Z,3356.00
2019-03-08T15:12:53.196Z,3536.00
2019-03-08T15:13:53.156Z,3536.00
2019-03-08T15:14:52.149Z,3552.00
2019-03-08T15:15:52.152Z,4260.00
2019-03-08T15:16:52.220Z,4152.00
2019-03-08T15:17:53.727Z,3468.00
2019-03-08T15:18:53.128Z,3920.00
2019-03-08T15:19:52.115Z,3648.00
2019-03-08T15:20:54.873Z,3764.00
2019-03-08T15:21:53.112Z,3780.00
2019-03-08T15:22:52.092Z,3744.00
2019-03-08T15:23:54.532Z,3876.00
2019-03-08T15:24:54.838Z,3900.00
2019-03-08T15:25:52.080Z,3848.00
2019-03-08T15:26:52.077Z,3820.00
2019-03-08T15:27:52.071Z,3780.00
2019-03-08T15:28:52.049Z,3788.00
2019-03-08T15:29:54.671Z,3788.00
2019-03-08T15:30:53.036Z,3684.00
2019-03-08T15:31:52.050Z,3576.00
2019-03-08T15:32:52.034Z,3572.00
2019-03-08T15:33:52.059Z,3468.00
2019-03-08T15:34:52.029Z,3692.00
2019-03-08T15:35:52.012Z,3644.00
2019-03-08T15:36:52.030Z,3680.00
2019-03-08T15:37:52.004Z,3664.00
2019-03-08T15:38:58.555Z,3668.00
2019-03-08T15:39:53.976Z,3172.00
2019-03-08T15:40:51.967Z,2884.00
2019-03-08T15:41:51.962Z,3048.00
2019-03-08T15:42:51.964Z,2952.00
2019-03-08T15:43:52.931Z,2652.00
2019-03-08T15:44:51.939Z,2696.00
2019-03-08T15:45:51.936Z,2724.00
2019-03-08T15:46:51.957Z,3112.00
2019-03-08T15:47:51.925Z,3080.00
2019-03-08T15:48:53.275Z,2992.00
2019-03-08T15:49:52.916Z,2928.00
2019-03-08T15:50:51.907Z,2788.00
2019-03-08T15:51:52.434Z,2832.00
2019-03-08T15:52:51.888Z,2808.00
2019-03-08T15:53:51.883Z,2812.00
2019-03-08T15:54:52.425Z,2812.00
2019-03-08T15:55:53.271Z,2820.00
2019-03-08T15:56:52.903Z,2816.00
2019-03-08T15:57:52.441Z,2848.00
2019-03-08T15:58:51.869Z,2900.00
2019-03-08T15:59:51.847Z,2760.00
2019-03-08T16:00:51.874Z,2568.00
2019-03-08T16:01:51.911Z,2528.00
2019-03-08T16:02:54.408Z,2484.00
2019-03-08T16:03:52.836Z,2528.00
2019-03-08T16:04:52.109Z,2528.00
2019-03-08T16:05:51.964Z,2392.00
2019-03-08T16:06:51.855Z,2296.00
2019-03-08T16:07:51.840Z,2172.00
2019-03-08T16:08:52.499Z,2156.00
2019-03-08T16:09:51.828Z,2132.00
2019-03-08T16:10:51.829Z,2036.00
2019-03-08T16:11:51.957Z,1992.00
2019-03-08T16:12:51.900Z,1988.00
2019-03-08T16:13:52.337Z,1976.00
2019-03-08T16:14:52.341Z,1932.00
2019-03-08T16:15:51.842Z,1908.00
2019-03-08T16:16:51.787Z,1884.00
2019-03-08T16:17:51.761Z,1852.00
2019-03-08T16:18:51.847Z,1768.00
2019-03-08T16:19:52.622Z,1668.00
2019-03-08T16:20:51.811Z,1648.00
2019-03-08T16:21:52.051Z,1620.00
2019-03-08T16:22:52.841Z,1504.00
2019-03-08T16:23:51.869Z,1376.00
2019-03-08T16:24:52.777Z,1344.00
2019-03-08T16:25:51.777Z,1276.00
2019-03-08T16:26:51.776Z,1188.00
2019-03-08T16:27:51.843Z,1132.00
2019-03-08T16:28:51.737Z,1096.00
2019-03-08T16:29:51.752Z,1076.00
2019-03-08T16:30:51.732Z,1032.00
2019-03-08T16:31:51.828Z,992.00
2019-03-08T16:32:51.809Z,904.00
2019-03-08T16:33:51.826Z,812.00
2019-03-08T16:34:51.781Z,760.00
2019-03-08T16:35:51.813Z,732.00
2019-03-08T16:36:51.795Z,724.00
2019-03-08T16:37:51.907Z,696.00
2019-03-08T16:38:51.754Z,664.00
2019-03-08T16:39:51.845Z,652.00
2019-03-08T16:40:51.753Z,628.00
2019-03-08T16:41:51.758Z,604.00
2019-03-08T16:42:52.342Z,572.00
2019-03-08T16:43:51.618Z,568.00
2019-03-08T16:44:51.816Z,540.00
2019-03-08T16:45:54.819Z,528.00
2019-03-08T16:46:52.620Z,516.00
2019-03-08T16:47:52.342Z,492.00
2019-03-08T16:48:51.629Z,476.00
2019-03-08T16:49:52.926Z,440.00
2019-03-08T16:50:51.544Z,392.00
2019-03-08T16:51:51.531Z,348.00
2019-03-08T16:52:51.524Z,320.00
2019-03-08T16:53:51.530Z,296.00
2019-03-08T16:54:51.522Z,284.00
2019-03-08T16:55:51.513Z,268.00
2019-03-08T16:56:51.505Z,248.00
2019-03-08T16:57:51.490Z,236.00
2019-03-08T16:58:51.486Z,224.00
2019-03-08T16:59:51.483Z,212.00
2019-03-08T17:00:51.461Z,204.00
2019-03-08T17:01:51.457Z,192.00
2019-03-08T17:02:51.448Z,180.00
2019-03-08T17:03:51.457Z,168.00
2019-03-08T17:04:51.449Z,156.00
2019-03-08T17:05:51.425Z,148.00
2019-03-08T17:06:51.429Z,136.00
2019-03-08T17:07:51.411Z,124.00
2019-03-08T17:08:51.418Z,120.00
2019-03-08T17:09:51.463Z,108.00
2019-03-08T17:10:51.449Z,104.00
2019-03-08T17:11:51.429Z,96.00
2019-03-08T17:12:51.402Z,96.00
2019-03-08T17:13:51.406Z,88.00
2019-03-08T17:14:51.386Z,84.00
2019-03-08T17:15:51.375Z,76.00
2019-03-08T17:16:51.370Z,68.00
2019-03-08T17:17:51.355Z,60.00
2019-03-08T17:18:51.359Z,52.00
2019-03-08T17:19:51.343Z,48.00
2019-03-08T17:20:51.335Z,44.00
2019-03-08T17:21:51.331Z,36.00
2019-03-08T17:22:51.339Z,32.00
2019-03-08T17:23:51.355Z,24.00
2019-03-08T17:24:51.327Z,20.00
2019-03-08T17:25:51.330Z,20.00
2019-03-08T17:26:51.309Z,16.00
2019-03-08T17:27:51.298Z,12.00
2019-03-08T17:28:51.305Z,12.00
2019-03-08T17:29:51.283Z,8.00
2019-03-08T17:30:51.287Z,8.00
2019-03-08T17:31:51.308Z,4.00
2019-03-08T17:32:51.269Z,4.00
2019-03-08T17:33:51.650Z,0.00
2019-03-08T17:34:52.242Z,4.00
2019-03-08T17:35:51.242Z,0.00
2019-03-08T17:36:51.236Z,0.00
2019-03-08T17:37:51.250Z,4.00
2019-03-08T17:38:51.235Z,0.00
2019-03-08T17:39:51.225Z,0.00
2019-03-08T17:40:51.211Z,0.00
2019-03-08T17:41:51.195Z,0.00
2019-03-08T17:42:51.194Z,0.00
2019-03-08T17:43:51.189Z,0.00
2019-03-08T17:44:51.173Z,0.00
2019-03-08T17:45:51.170Z,0.00
2019-03-08T17:46:51.163Z,0.00
2019-03-08T17:47:51.150Z,0.00
2019-03-08T17:48:51.157Z,0.00
2019-03-08T17:49:51.140Z,0.00
2019-03-08T17:50:51.125Z,0.00
2019-03-08T17:51:51.133Z,0.00
2019-03-08T17:52:51.130Z,0.00
2019-03-08T17:53:51.140Z,0.00
2019-03-08T17:54:51.109Z,0.00
2019-03-08T17:55:51.579Z,0.00
2019-03-08T17:56:52.094Z,0.00
2019-03-08T17:57:51.096Z,0.00
2019-03-08T17:58:51.082Z,0.00
2019-03-08T17:59:51.082Z,0.00
2019-03-08T18:00:51.067Z,0.00
2019-03-08T18:01:51.067Z,0.00
2019-03-08T18:02:51.049Z,0.00
2019-03-08T18:03:51.042Z,0.00
2019-03-08T18:04:51.060Z,0.00
2019-03-08T18:05:51.040Z,0.00
2019-03-08T18:06:51.038Z,0.00
2019-03-08T18:07:51.022Z,0.00
2019-03-08T18:08:51.017Z,0.00
2019-03-08T18:10:24.912Z,0.00
2019-03-08T18:10:51.008Z,0.00
2019-03-08T18:11:51.018Z,0.00
2019-03-08T18:12:51.009Z,0.00
2019-03-08T18:13:50.986Z,0.00
2019-03-08T18:14:52.003Z,0.00
2019-03-08T18:15:50.997Z,0.00
2019-03-08T18:16:50.991Z,0.00
2019-03-08T18:17:50.988Z,0.00
2019-03-08T18:18:50.990Z,0.00
2019-03-08T18:19:50.984Z,0.00
2019-03-08T18:20:50.996Z,0.00
2019-03-08T18:21:50.983Z,0.00
2019-03-08T18:22:51.028Z,0.00
2019-03-08T18:23:50.967Z,0.00
2019-03-08T18:24:50.972Z,0.00
2019-03-08T18:25:50.951Z,0.00
2019-03-08T18:26:50.946Z,0.00
2019-03-08T18:27:50.940Z,0.00
2019-03-08T18:28:50.931Z,0.00
2019-03-08T18:29:50.940Z,0.00
2019-03-08T18:30:50.921Z,0.00
2019-03-08T18:31:50.913Z,0.00
2019-03-08T18:32:50.897Z,0.00
2019-03-08T18:33:50.891Z,0.00
2019-03-08T18:34:50.902Z,0.00
2019-03-08T18:35:50.874Z,0.00
2019-03-08T18:36:50.876Z,0.00
2019-03-08T18:37:50.863Z,0.00
2019-03-08T18:38:50.856Z,0.00
2019-03-08T18:39:50.855Z,0.00
2019-03-08T18:40:50.857Z,0.00
2019-03-08T18:41:50.861Z,0.00
2019-03-08T18:42:50.831Z,0.00
2019-03-08T18:43:50.822Z,0.00
2019-03-08T18:44:50.826Z,0.00
2019-03-08T18:45:50.829Z,0.00
2019-03-08T18:46:50.812Z,0.00
2019-03-08T18:47:50.803Z,0.00
2019-03-08T18:48:50.800Z,0.00
2019-03-08T18:49:50.795Z,0.00
2019-03-08T18:50:50.815Z,0.00
2019-03-08T18:51:50.804Z,0.00
2019-03-08T18:52:50.791Z,0.00
2019-03-08T18:53:50.876Z,0.00
2019-03-08T18:54:50.806Z,0.00
2019-03-08T18:55:50.813Z,0.00
2019-03-08T18:56:50.804Z,0.00
2019-03-08T18:57:50.807Z,0.00
2019-03-08T18:58:50.799Z,0.00
2019-03-08T18:59:50.787Z,0.00
2019-03-08T19:00:50.801Z,0.00
2019-03-08T19:01:50.774Z,0.00
2019-03-08T19:02:50.772Z,0.00
2019-03-08T19:03:50.759Z,0.00
2019-03-08T19:04:50.750Z,0.00
2019-03-08T19:05:50.777Z,0.00
2019-03-08T19:06:50.757Z,0.00
2019-03-08T19:07:50.747Z,0.00
2019-03-08T19:08:50.742Z,0.00
2019-03-08T19:09:50.736Z,0.00
2019-03-08T19:10:50.742Z,0.00
2019-03-08T19:11:50.722Z,0.00
2019-03-08T19:12:50.719Z,0.00
2019-03-08T19:13:50.711Z,0.00
2019-03-08T19:14:50.698Z,0.00
2019-03-08T19:15:50.718Z,0.00
2019-03-08T19:16:50.682Z,0.00
2019-03-08T19:17:50.682Z,0.00
2019-03-08T19:18:50.668Z,0.00
2019-03-08T19:19:50.658Z,0.00
2019-03-08T19:20:50.661Z,0.00
2019-03-08T19:21:50.647Z,0.00
2019-03-08T19:22:50.677Z,0.00
2019-03-08T19:23:50.646Z,0.00
2019-03-08T19:24:50.653Z,0.00
2019-03-08T19:25:50.651Z,0.00
2019-03-08T19:26:50.689Z,0.00
2019-03-08T19:27:50.613Z,0.00
2019-03-08T19:28:50.608Z,0.00
2019-03-08T19:29:50.614Z,0.00
2019-03-08T19:30:50.604Z,0.00
2019-03-08T19:31:50.597Z,0.00
2019-03-08T19:32:50.619Z,0.00
2019-03-08T19:33:50.569Z,0.00
2019-03-08T19:34:50.578Z,0.00
2019-03-08T19:35:50.567Z,0.00
2019-03-08T19:36:50.554Z,0.00
2019-03-08T19:37:50.557Z,0.00
2019-03-08T19:38:50.539Z,0.00
2019-03-08T19:39:50.531Z,0.00
2019-03-08T19:40:50.526Z,0.00
2019-03-08T19:41:50.554Z,0.00
2019-03-08T19:42:50.515Z,0.00
2019-03-08T19:43:50.501Z,0.00
2019-03-08T19:44:50.513Z,0.00
2019-03-08T19:45:50.483Z,0.00
2019-03-08T19:46:50.506Z,0.00
2019-03-08T19:47:50.497Z,0.00
2019-03-08T19:48:50.505Z,0.00
2019-03-08T19:49:50.490Z,0.00
2019-03-08T19:50:50.480Z,0.00
2019-03-08T19:51:50.482Z,0.00
2019-03-08T19:52:50.457Z,0.00
2019-03-08T19:53:50.451Z,0.00
2019-03-08T19:54:50.446Z,0.00
2019-03-08T19:55:50.445Z,0.00
2019-03-08T19:56:50.441Z,0.00
2019-03-08T19:57:50.429Z,0.00
2019-03-08T19:58:50.432Z,0.00
2019-03-08T19:59:50.411Z,0.00
2019-03-08T20:00:50.413Z,0.00
2019-03-08T20:01:50.409Z,0.00
2019-03-08T20:02:50.394Z,0.00
2019-03-08T20:03:50.387Z,0.00
2019-03-08T20:04:50.380Z,0.00
2019-03-08T20:05:50.376Z,0.00
2019-03-08T20:06:50.382Z,0.00
2019-03-08T20:07:50.377Z,0.00
2019-03-08T20:08:50.363Z,0.00
2019-03-08T20:09:50.351Z,0.00
2019-03-08T20:10:50.359Z,0.00
2019-03-08T20:11:50.355Z,0.00
2019-03-08T20:12:50.338Z,0.00
2019-03-08T20:13:50.333Z,0.00
2019-03-08T20:14:50.322Z,0.00
2019-03-08T20:15:50.310Z,0.00
2019-03-08T20:16:50.363Z,0.00
2019-03-08T20:17:50.331Z,0.00
2019-03-08T20:18:50.326Z,0.00
2019-03-08T20:19:50.311Z,0.00
2019-03-08T20:20:50.334Z,0.00
2019-03-08T20:21:50.326Z,0.00
2019-03-08T20:22:50.296Z,0.00
2019-03-08T20:23:50.292Z,0.00
2019-03-08T20:24:50.274Z,0.00
2019-03-08T20:25:50.281Z,0.00
2019-03-08T20:26:50.285Z,0.00
2019-03-08T20:27:50.268Z,0.00
2019-03-08T20:28:50.257Z,0.00
2019-03-08T20:29:50.262Z,0.00
2019-03-08T20:30:50.243Z,0.00
2019-03-08T20:31:50.263Z,0.00
2019-03-08T20:32:50.231Z,0.00
2019-03-08T20:33:50.223Z,0.00
2019-03-08T20:34:50.213Z,0.00
2019-03-08T20:35:50.245Z,0.00
2019-03-08T20:36:50.236Z,0.00
2019-03-08T20:37:50.195Z,0.00
2019-03-08T20:38:50.192Z,0.00
2019-03-08T20:39:50.181Z,0.00
2019-03-08T20:40:50.195Z,0.00
2019-03-08T20:41:50.169Z,0.00
2019-03-08T20:42:50.173Z,0.00
2019-03-08T20:43:50.154Z,0.00
2019-03-08T20:44:50.156Z,0.00
2019-03-08T20:45:50.160Z,0.00
2019-03-08T20:46:50.137Z,0.00
2019-03-08T20:47:50.139Z,0.00
2019-03-08T20:48:50.137Z,0.00
2019-03-08T20:49:50.128Z,0.00
2019-03-08T20:50:50.117Z,0.00
2019-03-08T20:51:50.133Z,0.00
2019-03-08T20:52:50.112Z,0.00
2019-03-08T20:53:50.099Z,0.00
2019-03-08T20:54:50.086Z,0.00
2019-03-08T20:55:50.086Z,0.00
2019-03-08T20:56:50.088Z,0.00
2019-03-08T20:57:50.081Z,0.00
2019-03-08T20:58:50.061Z,0.00
2019-03-08T20:59:50.057Z,0.00
2019-03-08T21:00:50.052Z,0.00
2019-03-08T21:01:50.054Z,0.00
2019-03-08T21:02:50.031Z,0.00
2019-03-08T21:03:50.027Z,0.00
2019-03-08T21:04:50.028Z,0.00
2019-03-08T21:05:50.795Z,0.00
2019-03-08T21:06:51.046Z,0.00
2019-03-08T21:07:50.056Z,0.00
2019-03-08T21:08:50.041Z,0.00
2019-03-08T21:09:50.018Z,0.00
2019-03-08T21:10:50.018Z,0.00
2019-03-08T21:11:50.013Z,0.00
2019-03-08T21:12:49.996Z,0.00
2019-03-08T21:13:50.985Z,0.00
2019-03-08T21:14:49.991Z,0.00
2019-03-08T21:15:49.970Z,0.00
2019-03-08T21:16:49.959Z,0.00
2019-03-08T21:17:49.983Z,0.00
2019-03-08T21:18:49.955Z,0.00
2019-03-08T21:19:49.947Z,0.00
2019-03-08T21:20:49.945Z,0.00
2019-03-08T21:21:49.941Z,0.00
2019-03-08T21:22:49.939Z,0.00
2019-03-08T21:23:49.940Z,0.00
2019-03-08T21:24:49.918Z,0.00
2019-03-08T21:25:49.908Z,0.00
2019-03-08T21:26:49.907Z,0.00
2019-03-08T21:27:49.909Z,0.00
2019-03-08T21:28:49.892Z,0.00
2019-03-08T21:29:49.899Z,0.00
2019-03-08T21:30:49.873Z,0.00
2019-03-08T21:31:49.868Z,0.00
2019-03-08T21:32:49.894Z,0.00
2019-03-08T21:33:49.875Z,0.00
2019-03-08T21:34:49.872Z,0.00
2019-03-08T21:35:49.851Z,0.00
2019-03-08T21:36:49.847Z,0.00
2019-03-08T21:37:49.859Z,0.00
2019-03-08T21:38:49.834Z,0.00
2019-03-08T21:39:49.830Z,0.00
2019-03-08T21:40:49.818Z,0.00
2019-03-08T21:41:49.827Z,0.00
2019-03-08T21:42:49.859Z,0.00
2019-03-08T21:43:49.816Z,0.00
2019-03-08T21:44:49.811Z,0.00
2019-03-08T21:45:49.818Z,0.00
2019-03-08T21:46:49.789Z,0.00
2019-03-08T21:47:49.791Z,0.00
2019-03-08T21:48:49.773Z,0.00
2019-03-08T21:49:49.773Z,0.00
2019-03-08T21:50:49.778Z,0.00
2019-03-08T21:51:49.765Z,0.00
2019-03-08T21:52:49.779Z,0.00
2019-03-08T21:53:49.757Z,0.00
2019-03-08T21:54:49.752Z,0.00
2019-03-08T21:55:49.738Z,0.00
2019-03-08T21:56:49.731Z,0.00
2019-03-08T21:57:49.755Z,0.00
2019-03-08T21:58:49.730Z,0.00
2019-03-08T21:59:49.731Z,0.00
2019-03-08T22:00:49.723Z,0.00
2019-03-08T22:01:49.729Z,0.00
2019-03-08T22:02:49.738Z,0.00
2019-03-08T22:03:49.725Z,0.00
2019-03-08T22:04:49.708Z,0.00
2019-03-08T22:05:49.701Z,0.00
2019-03-08T22:06:49.698Z,0.00
2019-03-08T22:07:49.702Z,0.00
2019-03-08T22:08:49.687Z,0.00
2019-03-08T22:09:49.668Z,0.00
2019-03-08T22:10:49.659Z,0.00
2019-03-08T22:11:49.654Z,0.00
2019-03-08T22:12:49.652Z,0.00
2019-03-08T22:13:49.653Z,0.00
2019-03-08T22:14:49.643Z,0.00
2019-03-08T22:15:49.631Z,0.00
2019-03-08T22:16:49.612Z,0.00
2019-03-08T22:17:49.605Z,0.00
2019-03-08T22:18:49.622Z,0.00
2019-03-08T22:19:49.596Z,0.00
2019-03-08T22:20:49.592Z,0.00
2019-03-08T22:21:49.590Z,0.00
2019-03-08T22:22:49.589Z,0.00
2019-03-08T22:23:49.588Z,0.00
2019-03-08T22:24:49.568Z,0.00
2019-03-08T22:25:49.558Z,0.00
2019-03-08T22:26:49.554Z,0.00
2019-03-08T22:27:49.540Z,0.00
2019-03-08T22:28:49.547Z,0.00
2019-03-08T22:29:49.537Z,0.00
2019-03-08T22:30:49.524Z,0.00
2019-03-08T22:31:49.527Z,0.00
2019-03-08T22:32:49.518Z,0.00
2019-03-08T22:33:49.511Z,0.00
2019-03-08T22:34:49.498Z,0.00
2019-03-08T22:35:49.493Z,0.00
2019-03-08T22:36:49.488Z,0.00
2019-03-08T22:37:49.481Z,0.00
2019-03-08T22:38:49.479Z,0.00
2019-03-08T22:39:49.469Z,0.00
2019-03-08T22:40:49.464Z,0.00
2019-03-08T22:41:49.449Z,0.00
2019-03-08T22:42:49.450Z,0.00
2019-03-08T22:43:49.455Z,0.00
2019-03-08T22:44:49.430Z,0.00
2019-03-08T22:45:49.422Z,0.00
2019-03-08T22:46:49.416Z,0.00
2019-03-08T22:47:49.417Z,0.00
2019-03-08T22:48:49.415Z,0.00
2019-03-08T22:49:49.408Z,0.00
2019-03-08T22:50:49.395Z,0.00
2019-03-08T22:51:49.384Z,0.00
2019-03-08T22:52:49.376Z,0.00
2019-03-08T22:53:49.393Z,0.00
2019-03-08T22:54:49.370Z,0.00
2019-03-08T22:55:49.350Z,0.00
2019-03-08T22:56:49.346Z,0.00
2019-03-08T22:57:49.345Z,0.00
2019-03-08T22:58:49.338Z,0.00
2019-03-08T22:59:49.328Z,0.00